createdAt,value
2022-11-22T00:00:45.738Z,96259.81
2022-11-22T00:03:13.277Z,96250.69
2022-11-22T00:05:40.785Z,96234.13
2022-11-22T00:08:08.918Z,96234.16
2022-11-22T00:10:36.393Z,96234.16
2022-11-22T00:13:04.870Z,96245.84
2022-11-22T00:15:32.429Z,96240.41
2022-11-22T00:18:00.091Z,96237.16
2022-11-22T00:20:28.158Z,96241.19
2022-11-22T00:22:57.258Z,96232.09
2022-11-22T00:25:24.888Z,96239.19
2022-11-22T00:27:52.792Z,96235.94
2022-11-22T00:30:20.609Z,96230.53
2022-11-22T00:32:48.306Z,96234.44
2022-11-22T00:35:15.783Z,96223.53
2022-11-22T00:37:43.333Z,96212.22
2022-11-22T00:40:11.114Z,96213.47
2022-11-22T00:42:38.620Z,96207.66
2022-11-22T00:45:06.585Z,96212.09
2022-11-22T00:47:34.092Z,96211.28
2022-11-22T00:50:01.545Z,96209.91
2022-11-22T00:52:29.002Z,96213.13
2022-11-22T00:54:56.622Z,96213.53
2022-11-22T00:57:24.103Z,96222.41
2022-11-22T00:59:51.985Z,96223.63
2022-11-22T01:02:19.513Z,96220.38
2022-11-22T01:04:47.422Z,96223.19
2022-11-22T01:07:15.019Z,96221.19
2022-11-22T01:09:42.613Z,96223.25
2022-11-22T01:12:10.396Z,96220.19
2022-11-22T01:14:37.914Z,96219.00
2022-11-22T01:17:05.514Z,96216.75
2022-11-22T01:19:33.155Z,96213.06
2022-11-22T01:22:00.692Z,96209.84
2022-11-22T01:24:28.242Z,96212.88
2022-11-22T01:26:56.073Z,96215.50
2022-11-22T01:29:24.022Z,96211.69
2022-11-22T01:31:51.451Z,96204.59
2022-11-22T01:34:19.067Z,96212.09
2022-11-22T01:36:46.535Z,96204.81
2022-11-22T01:39:13.969Z,96194.75
2022-11-22T01:41:41.445Z,96188.31
2022-11-22T01:44:42.709Z,96184.28
2022-11-22T01:47:21.434Z,96189.16
2022-11-22T01:49:54.309Z,96188.72
2022-11-22T01:52:26.268Z,96189.94
2022-11-22T01:55:06.840Z,96184.75
2022-11-22T01:57:37.919Z,96177.28
2022-11-22T02:00:09.373Z,96175.25
2022-11-22T02:02:47.170Z,96171.44
2022-11-22T02:05:18.235Z,96171.44
2022-11-22T02:07:53.014Z,96172.06
2022-11-22T02:10:25.193Z,96163.78
2022-11-22T02:12:54.751Z,96163.00
2022-11-22T02:15:22.178Z,96167.44
2022-11-22T02:17:49.695Z,96165.81
2022-11-22T02:20:18.047Z,96162.41
2022-11-22T02:22:48.643Z,96154.91
2022-11-22T02:25:21.579Z,96160.16
2022-11-22T02:27:50.498Z,96164.78
2022-11-22T02:30:18.367Z,96169.44
2022-11-22T02:32:46.067Z,96157.50
2022-11-22T02:35:26.622Z,96154.69
2022-11-22T02:38:02.293Z,96155.50
2022-11-22T02:40:40.514Z,96163.16
2022-11-22T02:43:28.283Z,96157.50
2022-11-22T02:45:56.173Z,96156.06
2022-11-22T02:48:23.861Z,96151.81
2022-11-22T02:50:51.376Z,96154.81
2022-11-22T02:53:18.794Z,96151.97
2022-11-22T02:55:46.271Z,96144.56
2022-11-22T02:58:13.764Z,96144.97
2022-11-22T03:00:41.358Z,96156.06
2022-11-22T03:03:08.904Z,96146.75
2022-11-22T03:05:36.319Z,96149.56
2022-11-22T03:08:03.893Z,96147.72
2022-11-22T03:10:31.740Z,96148.75
2022-11-22T03:12:59.806Z,96152.75
2022-11-22T03:15:27.230Z,96157.38
2022-11-22T03:18:02.187Z,96163.03
2022-11-22T03:20:30.595Z,96164.19
2022-11-22T03:23:00.763Z,96161.88
2022-11-22T03:25:28.795Z,96163.06
2022-11-22T03:27:56.403Z,96168.09
2022-11-22T03:30:23.853Z,96164.50
2022-11-22T03:32:51.353Z,96160.72
2022-11-22T03:35:18.890Z,96165.75
2022-11-22T03:37:46.544Z,96158.91
2022-11-22T03:40:14.083Z,96155.50
2022-11-22T03:42:41.526Z,96148.59
2022-11-22T03:45:09.390Z,96150.00
2022-11-22T03:47:36.834Z,96145.75
2022-11-22T03:50:05.618Z,96138.91
2022-11-22T03:52:33.151Z,96135.44
2022-11-22T03:55:00.633Z,96137.66
2022-11-22T03:57:28.256Z,96136.69
2022-11-22T03:59:55.744Z,96149.59
2022-11-22T04:02:23.304Z,96144.75
2022-11-22T04:04:50.774Z,96152.63
2022-11-22T04:07:18.572Z,96150.72
2022-11-22T04:09:46.100Z,96153.38
2022-11-22T04:12:13.644Z,96149.94
2022-11-22T04:14:59.904Z,96155.81
2022-11-22T04:17:45.913Z,96146.53
2022-11-22T04:20:37.763Z,96147.72
2022-11-22T04:23:07.924Z,96141.03
2022-11-22T04:25:37.675Z,96134.81
2022-11-22T04:28:07.040Z,96129.69
2022-11-22T04:30:55.035Z,96131.28
2022-11-22T04:33:23.512Z,96119.56
2022-11-22T04:35:52.113Z,96118.75
2022-11-22T04:38:19.583Z,96118.88
2022-11-22T04:40:47.294Z,96109.91
2022-11-22T04:43:41.547Z,96113.75
2022-11-22T04:46:09.356Z,96104.00
2022-11-22T04:48:37.174Z,96097.34
2022-11-22T04:51:24.415Z,96103.41
2022-11-22T04:53:52.003Z,96114.47
2022-11-22T04:56:19.522Z,96123.03
2022-11-22T04:58:47.035Z,96121.66
2022-11-22T05:01:14.670Z,96104.81
2022-11-22T05:03:42.172Z,96096.75
2022-11-22T05:06:13.466Z,96088.34
2022-11-22T05:08:41.012Z,96097.63
2022-11-22T05:11:08.497Z,96093.78
2022-11-22T05:13:38.992Z,96101.66
2022-11-22T05:16:09.673Z,96099.78
2022-11-22T05:18:37.930Z,96101.38
2022-11-22T05:21:15.139Z,96100.78
2022-11-22T05:23:54.671Z,96104.81
2022-11-22T05:26:26.384Z,96109.41
2022-11-22T05:28:54.284Z,96106.34
2022-11-22T05:31:24.224Z,96116.25
2022-11-22T05:33:53.973Z,96104.28
2022-11-22T05:36:22.452Z,96108.00
2022-11-22T05:38:50.242Z,96106.31
2022-11-22T05:41:18.495Z,96105.94
2022-11-22T05:43:46.186Z,96108.22
2022-11-22T05:46:24.727Z,96112.34
2022-11-22T05:48:54.826Z,96115.16
2022-11-22T05:51:33.533Z,96115.97
2022-11-22T05:54:02.505Z,96118.59
2022-11-22T05:56:30.104Z,96121.22
2022-11-22T05:58:57.713Z,96116.94
2022-11-22T06:01:25.907Z,96120.22
2022-11-22T06:03:54.563Z,96120.47
2022-11-22T06:06:22.110Z,96120.47
2022-11-22T06:08:51.307Z,96124.13
2022-11-22T06:11:23.862Z,96126.56
2022-11-22T06:13:53.626Z,96127.59
2022-11-22T06:16:22.104Z,96141.88
2022-11-22T06:18:50.174Z,96140.66
2022-11-22T06:21:20.163Z,96142.25
2022-11-22T06:23:47.698Z,96141.84
2022-11-22T06:26:17.656Z,96148.50
2022-11-22T06:28:46.694Z,96149.28
2022-11-22T06:31:16.761Z,96151.31
2022-11-22T06:33:44.921Z,96158.38
2022-11-22T06:36:14.666Z,96152.34
2022-11-22T06:38:43.509Z,96159.84
2022-11-22T06:41:22.202Z,96162.22
2022-11-22T06:43:51.235Z,96158.19
2022-11-22T06:46:21.042Z,96166.50
2022-11-22T06:48:49.267Z,96167.28
2022-11-22T06:51:25.291Z,96166.88
2022-11-22T06:53:56.715Z,96170.09
2022-11-22T06:56:29.994Z,96173.91
2022-11-22T06:58:58.052Z,96166.88
2022-11-22T07:01:28.593Z,96157.97
2022-11-22T07:03:58.703Z,96156.94
2022-11-22T07:06:28.696Z,96158.75
2022-11-22T07:08:56.227Z,96161.53
2022-11-22T07:11:25.978Z,96156.94
2022-11-22T07:13:54.904Z,96162.78
2022-11-22T07:16:22.713Z,96161.75
2022-11-22T07:18:50.665Z,96166.38
2022-11-22T07:21:21.726Z,96153.84
2022-11-22T07:23:51.561Z,96161.28
2022-11-22T07:26:21.296Z,96168.13
2022-11-22T07:28:49.160Z,96169.91
2022-11-22T07:31:17.685Z,96172.31
2022-11-22T07:33:45.391Z,96184.88
2022-11-22T07:36:18.452Z,96183.06
2022-11-22T07:38:46.506Z,96189.72
2022-11-22T07:41:15.022Z,96202.66
2022-11-22T07:43:42.650Z,96191.34
2022-11-22T07:46:29.436Z,96197.16
2022-11-22T07:49:01.578Z,96195.38
2022-11-22T07:51:29.853Z,96186.84
2022-11-22T07:54:00.185Z,96190.25
2022-11-22T07:56:27.636Z,96197.91
2022-11-22T07:58:55.304Z,96191.19
2022-11-22T08:01:23.768Z,96193.03
2022-11-22T08:03:51.412Z,96188.56
2022-11-22T08:06:18.933Z,96186.91
2022-11-22T08:08:46.505Z,96186.72
2022-11-22T08:11:14.033Z,96197.75
2022-11-22T08:13:41.767Z,96194.69
2022-11-22T08:16:12.045Z,96206.53
2022-11-22T08:18:40.739Z,96198.19
2022-11-22T08:21:12.883Z,96185.69
2022-11-22T08:23:41.861Z,96185.19
2022-11-22T08:26:12.708Z,96187.16
2022-11-22T08:28:41.270Z,96194.47
2022-11-22T08:31:12.524Z,96190.78
2022-11-22T08:33:41.115Z,96196.59
2022-11-22T08:36:09.153Z,96209.44
2022-11-22T08:38:36.832Z,96208.97
2022-11-22T08:41:06.595Z,96218.47
2022-11-22T08:43:34.485Z,96228.34
2022-11-22T08:46:02.371Z,96232.69
2022-11-22T08:48:32.156Z,96241.66
2022-11-22T08:51:07.747Z,96236.84
2022-11-22T08:53:38.503Z,96243.19
2022-11-22T08:56:09.754Z,96237.63
2022-11-22T08:58:38.085Z,96241.97
2022-11-22T09:01:14.597Z,96241.34
2022-11-22T09:03:43.162Z,96248.69
2022-11-22T09:09:22.617Z,96259.69
2022-11-22T09:11:50.769Z,96265.44
2022-11-22T09:14:18.224Z,96265.38
2022-11-22T09:16:45.699Z,96265.94
2022-11-22T09:19:13.493Z,96273.69
2022-11-22T09:21:40.934Z,96272.72
2022-11-22T09:24:08.474Z,96273.53
2022-11-22T09:26:36.124Z,96291.56
2022-11-22T09:29:03.743Z,96300.22
2022-11-22T09:31:31.533Z,96302.84
2022-11-22T09:33:58.973Z,96300.75
2022-11-22T09:36:26.774Z,96300.97
2022-11-22T09:38:56.258Z,96296.50
2022-11-22T09:41:42.712Z,96290.97
2022-11-22T09:44:31.220Z,96297.97
2022-11-22T09:47:21.372Z,96288.13
2022-11-22T09:50:00.908Z,96298.81
2022-11-22T09:52:38.564Z,96288.13
2022-11-22T09:55:24.201Z,96282.31
2022-11-22T09:58:06.113Z,96301.47
2022-11-22T10:00:35.188Z,96302.06
2022-11-22T10:03:05.234Z,96318.13
2022-11-22T10:05:41.574Z,96300.97
2022-11-22T10:08:20.774Z,96306.31
2022-11-22T10:10:53.339Z,96302.78
2022-11-22T10:13:28.692Z,96312.00
2022-11-22T10:16:31.300Z,96321.66
2022-11-22T10:19:16.931Z,96328.13
2022-11-22T10:21:48.134Z,96323.28
2022-11-22T10:24:18.471Z,96320.06
2022-11-22T10:26:46.999Z,96310.41
2022-11-22T10:29:14.454Z,96320.19
2022-11-22T10:31:52.584Z,96313.03
2022-11-22T10:34:32.148Z,96295.38
2022-11-22T10:37:13.860Z,96287.34
2022-11-22T10:39:55.720Z,96292.47
2022-11-22T10:42:23.204Z,96293.22
2022-11-22T10:45:22.854Z,96294.25
2022-11-22T10:48:26.309Z,96291.13
2022-11-22T10:51:19.493Z,96302.31
2022-11-22T10:54:13.854Z,96312.63
2022-11-22T10:56:59.051Z,96315.81
2022-11-22T10:59:38.572Z,96307.75
2022-11-22T11:02:35.815Z,96312.66
2022-11-22T11:05:09.194Z,96314.06
2022-11-22T11:07:41.810Z,96309.97
2022-11-22T11:10:27.851Z,96305.97
2022-11-22T11:13:05.003Z,96313.28
2022-11-22T11:15:44.867Z,96306.97
2022-11-22T11:18:24.973Z,96311.88
2022-11-22T11:20:53.829Z,96309.31
2022-11-22T11:23:21.264Z,96306.44
2022-11-22T11:25:49.552Z,96305.41
2022-11-22T11:28:26.235Z,96311.63
2022-11-22T11:31:08.169Z,96305.97
2022-11-22T11:33:38.704Z,96297.38
2022-11-22T11:36:14.406Z,96309.91
2022-11-22T11:38:41.833Z,96290.72
2022-11-22T11:41:40.213Z,96291.38
2022-11-22T11:44:29.429Z,96289.28
2022-11-22T11:46:57.732Z,96277.47
2022-11-22T11:49:33.496Z,96279.63
2022-11-22T11:52:08.760Z,96277.44
2022-11-22T11:54:39.413Z,96275.72
2022-11-22T11:57:30.912Z,96279.03
2022-11-22T12:00:02.032Z,96287.53
2022-11-22T12:02:42.937Z,96290.72
2022-11-22T12:05:32.196Z,96288.09
2022-11-22T12:08:01.340Z,96289.97
2022-11-22T12:10:49.873Z,96286.16
2022-11-22T12:14:04.672Z,96288.84
2022-11-22T12:16:40.124Z,96301.16
2022-11-22T12:19:38.474Z,96299.75
2022-11-22T12:22:42.754Z,96295.31
2022-11-22T12:25:40.653Z,96291.09
2022-11-22T12:28:20.393Z,96293.72
2022-11-22T12:31:14.806Z,96297.31
2022-11-22T12:33:56.376Z,96288.56
2022-11-22T12:36:40.274Z,96286.34
2022-11-22T12:39:12.495Z,96291.63
2022-11-22T12:41:41.850Z,96290.22
2022-11-22T12:44:16.804Z,96284.03
2022-11-22T12:46:52.643Z,96290.22
2022-11-22T12:49:49.480Z,96279.25
2022-11-22T12:52:39.491Z,96277.22
2022-11-22T12:55:23.964Z,96290.09
2022-11-22T12:57:59.923Z,96285.22
2022-11-22T13:00:32.470Z,96289.66
2022-11-22T13:03:13.084Z,96283.81
2022-11-22T13:05:46.123Z,96282.63
2022-11-22T13:08:37.325Z,96284.41
2022-11-22T13:11:40.283Z,96285.22
2022-11-22T13:14:20.820Z,96284.63
2022-11-22T13:16:51.884Z,96285.00
2022-11-22T13:19:24.036Z,96288.22
2022-11-22T13:22:36.142Z,96290.84
2022-11-22T13:25:24.634Z,96287.94
2022-11-22T13:27:53.282Z,96280.31
2022-11-22T13:30:29.795Z,96283.25
2022-11-22T13:33:00.964Z,96289.56
2022-11-22T13:35:36.893Z,96286.16
2022-11-22T13:38:15.184Z,96287.78
2022-11-22T13:40:50.633Z,96278.31
2022-11-22T13:43:22.350Z,96279.78
2022-11-22T13:45:54.795Z,96278.41
2022-11-22T13:48:40.855Z,96276.94
2022-11-22T13:51:14.436Z,96283.81
2022-11-22T13:53:44.144Z,96281.41
2022-11-22T13:56:20.644Z,96275.69
2022-11-22T13:58:51.046Z,96284.41
2022-11-22T14:01:34.167Z,96284.47
2022-11-22T14:04:16.906Z,96283.50
2022-11-22T14:06:48.923Z,96287.22
2022-11-22T14:09:55.085Z,96292.06
2022-11-22T14:12:43.453Z,96283.41
2022-11-22T14:15:11.026Z,96280.13
2022-11-22T14:17:57.181Z,96284.97
2022-11-22T14:20:53.041Z,96278.97
2022-11-22T14:23:57.200Z,96283.84
2022-11-22T14:26:50.924Z,96278.97
2022-11-22T14:29:49.394Z,96281.22
2022-11-22T14:32:23.851Z,96273.09
2022-11-22T14:35:06.405Z,96282.38
2022-11-22T14:37:43.964Z,96278.97
2022-11-22T14:40:31.528Z,96279.59
2022-11-22T14:43:02.357Z,96279.97
2022-11-22T14:46:00.675Z,96276.16
2022-11-22T14:48:35.543Z,96274.69
2022-11-22T14:51:25.720Z,96276.97
2022-11-22T14:54:01.213Z,96278.34
2022-11-22T14:56:34.472Z,96271.56
2022-11-22T14:59:34.581Z,96280.25
2022-11-22T15:02:36.775Z,96276.75
2022-11-22T15:09:13.451Z,96280.63
2022-11-22T15:09:14.903Z,96288.09
2022-11-22T15:11:32.666Z,96297.00
2022-11-22T15:14:09.272Z,96285.66
2022-11-22T15:57:27.580Z,96333.84
2022-11-22T15:59:55.826Z,96333.06
2022-11-22T16:02:27.792Z,96336.66
2022-11-22T16:06:07.515Z,96338.88
2022-11-22T16:07:55.788Z,96338.66
2022-11-22T16:10:45.741Z,96336.84
2022-11-22T16:13:34.974Z,96334.94
2022-11-22T16:16:06.952Z,96331.72
2022-11-22T16:18:35.753Z,96322.03
2022-11-22T16:21:12.320Z,96330.50
2022-11-22T16:23:41.236Z,96333.50
2022-11-22T16:26:20.582Z,96328.47
2022-11-22T16:28:51.400Z,96332.31
2022-11-22T16:31:25.573Z,96324.66
2022-11-22T16:33:54.399Z,96332.50
2022-11-22T16:36:24.054Z,96339.19
2022-11-22T16:38:51.918Z,96336.78
2022-11-22T16:41:21.901Z,96335.31
2022-11-22T16:43:53.065Z,96346.63
2022-11-22T16:46:20.804Z,96352.94
2022-11-22T16:48:48.471Z,96353.78
2022-11-22T16:51:23.032Z,96354.03
2022-11-22T16:53:53.349Z,96358.03
2022-11-22T16:56:26.629Z,96358.88
2022-11-22T16:58:56.573Z,96372.44
2022-11-22T17:01:26.887Z,96370.59
2022-11-22T17:03:56.847Z,96370.22
2022-11-22T17:06:26.372Z,96377.09
2022-11-22T17:08:56.110Z,96377.09
2022-11-22T17:11:26.734Z,96390.03
2022-11-22T17:13:54.283Z,96397.34
2022-11-22T17:16:21.866Z,96397.34
2022-11-22T17:18:49.358Z,96399.75
2022-11-22T17:21:27.869Z,96399.75
2022-11-22T17:24:03.122Z,96401.25
2022-11-22T17:26:32.571Z,96390.50
2022-11-22T17:29:00.052Z,96392.97
2022-11-22T17:31:28.365Z,96406.16
2022-11-22T17:33:58.373Z,96404.53
2022-11-22T17:36:31.233Z,96400.31
2022-11-22T17:39:00.308Z,96407.00
2022-11-22T17:41:28.063Z,96411.88
2022-11-22T17:43:55.846Z,96411.31
2022-11-22T17:46:23.813Z,96424.44
2022-11-22T17:48:57.876Z,96427.91
2022-11-22T17:51:27.223Z,96429.75
2022-11-22T17:53:55.573Z,96435.41
2022-11-22T17:56:23.003Z,96432.59
2022-11-22T17:58:50.812Z,96437.25
2022-11-22T18:01:20.632Z,96442.13
2022-11-22T18:03:48.464Z,96443.94
2022-11-22T18:06:17.413Z,96436.66
2022-11-22T18:08:47.287Z,96431.84
2022-11-22T18:11:16.331Z,96424.56
2022-11-22T18:13:44.401Z,96435.25
2022-11-22T18:16:14.802Z,96432.47
2022-11-22T18:18:58.460Z,96434.69
2022-11-22T18:21:31.030Z,96431.25
2022-11-22T18:23:59.385Z,96442.00
2022-11-22T18:26:42.860Z,96443.81
2022-11-22T18:32:00.821Z,96461.03
2022-11-22T18:34:29.423Z,96464.69
2022-11-22T18:37:01.974Z,96458.41
2022-11-22T18:39:32.782Z,96462.84
2022-11-22T18:42:00.954Z,96466.50
2022-11-22T18:44:28.380Z,96465.50
2022-11-22T18:46:55.980Z,96459.66
2022-11-22T18:49:23.534Z,96458.81
2022-11-22T18:51:51.089Z,96460.88
2022-11-22T18:54:18.679Z,96470.34
2022-11-22T18:56:46.213Z,96472.16
2022-11-22T18:59:13.744Z,96470.56
2022-11-22T19:01:41.933Z,96467.72
2022-11-22T19:04:14.462Z,96475.59
2022-11-22T19:06:43.037Z,96484.91
2022-11-22T19:09:11.245Z,96483.88
2022-11-22T19:11:38.938Z,96472.16
2022-11-22T19:14:06.712Z,96473.38
2022-11-22T19:16:34.193Z,96474.97
2022-11-22T19:19:02.098Z,96478.41
2022-11-22T19:21:30.460Z,96480.44
2022-11-22T19:23:58.203Z,96481.03
2022-11-22T19:26:27.413Z,96483.66
2022-11-22T19:28:56.616Z,96479.81
2022-11-22T19:31:27.968Z,96489.91
2022-11-22T19:33:55.805Z,96494.75
2022-11-22T19:40:30.036Z,96507.69
2022-11-22T19:42:57.695Z,96510.09
2022-11-22T19:45:25.159Z,96508.25
2022-11-22T19:47:52.609Z,96513.53
2022-11-22T19:50:21.178Z,96515.34
2022-11-22T19:52:48.649Z,96517.97
2022-11-22T19:55:16.287Z,96523.44
2022-11-22T19:57:43.760Z,96517.16
2022-11-22T20:00:11.878Z,96510.50
2022-11-22T20:02:39.348Z,96505.06
2022-11-22T20:05:07.018Z,96510.09
2022-11-22T20:07:34.721Z,96514.75
2022-11-22T20:10:04.455Z,96518.38
2022-11-22T20:12:31.950Z,96513.13
2022-11-22T20:14:59.429Z,96521.41
2022-11-22T20:17:27.059Z,96515.97
2022-11-22T20:19:54.579Z,96518.78
2022-11-22T20:22:22.250Z,96515.38
2022-11-22T20:24:49.787Z,96521.63
2022-11-22T20:27:24.374Z,96517.59
2022-11-22T20:29:52.235Z,96525.88
2022-11-22T20:32:19.850Z,96529.53
2022-11-22T20:34:47.520Z,96535.38
2022-11-22T20:37:15.109Z,96535.38
2022-11-22T20:39:42.455Z,96531.56
2022-11-22T20:42:33.758Z,96532.16
2022-11-22T20:44:57.559Z,96532.56
2022-11-22T20:47:25.207Z,96537.00
2022-11-22T20:49:52.655Z,96533.78
2022-11-22T20:52:20.630Z,96528.28
2022-11-22T20:54:50.728Z,96525.06
2022-11-22T20:57:18.300Z,96534.38
2022-11-22T20:59:45.830Z,96532.34
2022-11-22T21:02:13.239Z,96538.25
2022-11-22T21:04:40.799Z,96536.59
2022-11-22T21:07:08.246Z,96532.97
2022-11-22T21:09:36.005Z,96538.22
2022-11-22T21:12:03.879Z,96539.03
2022-11-22T21:14:31.662Z,96539.66
2022-11-22T21:17:16.300Z,96540.88
2022-11-22T21:19:46.839Z,96546.50
2022-11-22T21:22:14.349Z,96539.25
2022-11-22T21:24:41.930Z,96528.34
2022-11-22T21:27:09.448Z,96534.19
2022-11-22T21:29:36.955Z,96532.38
2022-11-22T21:32:04.544Z,96539.44
2022-11-22T21:34:32.205Z,96543.69
2022-11-22T21:36:59.830Z,96537.81
2022-11-22T21:39:27.330Z,96540.84
2022-11-22T21:41:54.995Z,96546.31
2022-11-22T21:44:22.425Z,96548.13
2022-11-22T21:46:51.359Z,96544.88
2022-11-22T21:49:18.818Z,96552.56
2022-11-22T21:51:48.045Z,96555.16
2022-11-22T21:54:15.619Z,96546.88
2022-11-22T21:56:43.031Z,96550.13
2022-11-22T21:59:11.620Z,96542.84
2022-11-22T22:01:39.255Z,96539.41
2022-11-22T22:04:06.909Z,96536.34
2022-11-22T22:06:34.335Z,96546.66
2022-11-22T22:09:01.992Z,96543.84
2022-11-22T22:11:29.398Z,96547.66
2022-11-22T22:13:59.251Z,96543.97
2022-11-22T22:16:26.819Z,96540.56
2022-11-22T22:18:54.663Z,96538.13
2022-11-22T22:21:22.246Z,96544.19
2022-11-22T22:23:49.649Z,96557.75
2022-11-22T22:26:18.080Z,96554.53
2022-11-22T22:28:46.388Z,96554.31
2022-11-22T22:31:17.534Z,96544.81
2022-11-22T22:33:45.839Z,96545.22
2022-11-22T22:36:14.398Z,96540.97
2022-11-22T22:38:42.139Z,96545.63
2022-11-22T22:41:12.381Z,96551.28
2022-11-22T22:43:45.373Z,96552.47
2022-11-22T22:46:21.311Z,96552.09
2022-11-22T22:48:49.906Z,96548.81
2022-11-22T22:51:20.590Z,96558.75
2022-11-22T22:53:48.777Z,96555.34
2022-11-22T22:56:18.401Z,96559.97
2022-11-22T22:58:46.219Z,96562.78
2022-11-22T23:01:15.285Z,96567.47
2022-11-22T23:03:43.199Z,96559.78
2022-11-22T23:06:12.070Z,96554.91
2022-11-22T23:08:39.995Z,96554.91
2022-11-22T23:11:11.255Z,96554.69
2022-11-22T23:13:41.768Z,96552.47
2022-11-22T23:16:11.839Z,96550.88
2022-11-22T23:18:41.797Z,96552.50
2022-11-22T23:21:12.759Z,96551.31
2022-11-22T23:23:40.297Z,96554.53
2022-11-22T23:26:10.189Z,96554.53
2022-11-22T23:28:38.219Z,96549.47
2022-11-22T23:31:11.657Z,96549.06
2022-11-22T23:33:39.449Z,96548.25
2022-11-22T23:36:09.594Z,96552.47
2022-11-22T23:38:37.091Z,96554.91
2022-11-22T23:41:05.292Z,96562.19
2022-11-22T23:43:32.948Z,96564.22
2022-11-22T23:46:00.481Z,96559.97
2022-11-22T23:48:28.131Z,96559.38
2022-11-22T23:50:55.911Z,96571.50
2022-11-22T23:53:23.445Z,96571.13
2022-11-22T23:55:50.988Z,96575.19
2022-11-22T23:58:18.620Z,96576.41
